Time;durP1;ratioP1;P1;durP2;ratioP2;P2;SDS_P1;SDS_P2;PMS_P1;PMS_P2;Temp;Humidity;BMP_temperature;BMP_pressure;BME280_temperature;BME280_humidity;BME280_pressure;Samples;Min_cycle;Max_cycle;Signal;HPM_P1;HPM_P2
2021/06/09 00:01:54;;;;;;;2.88;2.40;;;;;;;15.92;80.13;99197.34;5016390;28;20116;-71
2021/06/09 00:04:20;;;;;;;2.53;2.33;;;;;;;15.86;80.43;99203.31;5032378;28;20053;-69
2021/06/09 00:06:46;;;;;;;2.65;2.42;;;;;;;15.78;80.60;99204.13;5032685;28;20060;-71
2021/06/09 00:09:12;;;;;;;2.92;2.42;;;;;;;15.73;80.79;99210.97;5033276;28;20045;-72
2021/06/09 00:11:38;;;;;;;3.10;2.50;;;;;;;15.71;80.89;99210.28;5032905;28;20117;-72
2021/06/09 00:14:05;;;;;;;3.00;2.50;;;;;;;15.72;81.04;99198.63;5033089;28;20164;-73
2021/06/09 00:16:31;;;;;;;3.20;2.78;;;;;;;15.82;80.68;99200.16;5032906;28;20038;-71
2021/06/09 00:18:57;;;;;;;3.60;3.30;;;;;;;15.92;80.45;99204.53;5033215;28;20549;-71
2021/06/09 00:21:23;;;;;;;3.00;2.70;;;;;;;15.96;80.31;99206.69;5033467;28;20112;-70
2021/06/09 00:23:49;;;;;;;3.72;3.33;;;;;;;15.96;80.21;99211.19;5033311;28;20467;-69
2021/06/09 00:26:18;;;;;;;3.00;2.70;;;;;;;16.03;80.14;99206.88;5033469;28;20501;-70
2021/06/09 00:28:45;;;;;;;2.97;2.78;;;;;;;16.07;80.04;99210.03;5032922;28;20049;-71
2021/06/09 00:31:11;;;;;;;2.75;2.55;;;;;;;16.13;79.88;99206.72;5033366;28;20202;-71
2021/06/09 00:33:37;;;;;;;3.10;2.80;;;;;;;16.14;79.73;99208.38;5032998;28;20182;-69
2021/06/09 00:36:04;;;;;;;3.17;2.30;;;;;;;16.21;79.54;99208.53;5031638;28;20041;-69
2021/06/09 00:38:30;;;;;;;3.03;2.72;;;;;;;16.22;79.49;99203.03;5032742;28;20040;-70
2021/06/09 00:40:58;;;;;;;2.55;2.20;;;;;;;16.19;79.40;99200.72;5033050;28;20195;-71
2021/06/09 00:43:27;;;;;;;4.47;2.75;;;;;;;16.17;79.55;99208.88;5033034;28;20033;-72
2021/06/09 00:45:59;;;;;;;2.50;2.30;;;;;;;16.19;79.82;99206.03;5048261;28;20039;-70
2021/06/09 00:48:29;;;;;;;2.75;2.55;;;;;;;16.20;79.68;99202.38;5031888;28;20076;-73
2021/06/09 00:50:56;;;;;;;2.75;2.30;;;;;;;16.21;79.59;99204.03;5032527;28;20041;-70
2021/06/09 00:53:57;;;;;;;2.53;2.30;;;;;;;16.23;79.68;99201.22;5032767;28;20029;-69
2021/06/09 00:56:14;;;;;;;3.35;2.28;;;;;;;16.26;79.34;99201.72;5032201;28;20049;-72
2021/06/09 00:58:41;;;;;;;3.85;2.53;;;;;;;16.26;79.48;99201.72;5031651;28;20041;-72
2021/06/09 01:01:09;;;;;;;3.30;2.40;;;;;;;16.26;79.36;99204.38;5032903;28;20041;-70
2021/06/09 01:03:36;;;;;;;2.30;2.05;;;;;;;16.28;79.43;99198.88;5015663;28;20096;-70
2021/06/09 01:06:03;;;;;;;3.80;2.50;;;;;;;16.25;79.66;99193.84;5012793;28;20041;-70
2021/06/09 01:08:33;;;;;;;2.78;2.10;;;;;;;16.26;79.62;99192.84;5012512;28;20057;-70
2021/06/09 01:10:59;;;;;;;2.78;2.40;;;;;;;16.28;79.47;99194.34;5012780;28;20116;-71
2021/06/09 01:13:27;;;;;;;2.63;2.40;;;;;;;16.30;79.41;99196.88;5012579;28;20168;-70
2021/06/09 01:15:53;;;;;;;2.65;2.35;;;;;;;16.33;79.26;99199.19;5012562;28;20038;-71
2021/06/09 01:18:19;;;;;;;2.90;2.60;;;;;;;16.36;79.39;99200.69;5012733;28;20068;-70
2021/06/09 01:20:46;;;;;;;2.63;2.42;;;;;;;16.32;79.40;99201.03;5012505;28;20059;-71
2021/06/09 01:23:12;;;;;;;2.80;2.58;;;;;;;16.36;79.67;99208.69;5011292;28;20061;-70
2021/06/09 01:25:38;;;;;;;3.40;2.67;;;;;;;16.38;79.63;99209.38;5012389;28;20466;-72
2021/06/09 01:28:06;;;;;;;3.58;3.10;;;;;;;16.39;79.27;99213.72;5012211;28;20050;-72
2021/06/09 01:30:32;;;;;;;3.03;2.72;;;;;;;16.40;79.51;99213.56;5012410;28;20046;-71
2021/06/09 01:32:58;;;;;;;3.55;3.00;;;;;;;16.43;79.49;99213.19;5012512;28;20038;-70
2021/06/09 01:35:24;;;;;;;3.22;2.90;;;;;;;16.48;79.32;99210.03;5012201;28;20121;-72
2021/06/09 01:37:50;;;;;;;4.07;3.40;;;;;;;16.45;79.28;99215.72;5012490;28;20132;-69
2021/06/09 01:40:19;;;;;;;3.80;3.50;;;;;;;16.44;79.46;99219.38;5012424;28;20076;-70
2021/06/09 01:42:45;;;;;;;3.78;2.88;;;;;;;16.46;79.43;99222.69;5011995;28;20096;-71
2021/06/09 01:45:14;;;;;;;3.65;3.35;;;;;;;16.47;79.51;99224.38;5012168;28;20049;-71
2021/06/09 01:47:40;;;;;;;4.53;3.70;;;;;;;16.40;79.62;99216.22;5012148;28;20050;-72
2021/06/09 01:50:08;;;;;;;3.70;3.40;;;;;;;16.38;79.68;99220.06;5010834;28;20387;-70
2021/06/09 01:52:35;;;;;;;3.50;3.20;;;;;;;16.39;79.67;99211.06;5011982;28;20030;-69
2021/06/09 01:55:02;;;;;;;4.15;3.63;;;;;;;16.43;79.60;99217.72;5010871;28;20042;-70
2021/06/09 01:57:29;;;;;;;5.07;3.00;;;;;;;16.44;79.25;99214.06;5012031;28;20026;-74
2021/06/09 01:59:55;;;;;;;3.50;3.20;;;;;;;16.44;79.46;99206.03;5015348;28;20378;-69
2021/06/09 02:02:21;;;;;;;3.50;3.15;;;;;;;16.42;79.43;99216.03;5012496;28;20128;-72
2021/06/09 02:04:48;;;;;;;3.78;3.33;;;;;;;16.46;79.35;99209.34;5034538;28;20045;-75
2021/06/09 02:07:17;;;;;;;3.35;3.15;;;;;;;16.48;79.13;99213.53;5035163;28;20079;-74
2021/06/09 02:09:43;;;;;;;3.58;3.33;;;;;;;16.47;79.19;99217.22;5017863;28;20503;-75
2021/06/09 02:12:09;;;;;;;3.33;3.03;;;;;;;16.48;78.90;99207.38;5034149;28;20086;-70
2021/06/09 02:14:36;;;;;;;3.78;3.35;;;;;;;16.55;78.78;99210.19;5035650;28;20104;-70
2021/06/09 02:17:05;;;;;;;3.42;3.13;;;;;;;16.59;78.58;99207.00;5035983;28;20029;-72
2021/06/09 02:19:32;;;;;;;7.45;6.72;;;;;;;16.58;78.65;99207.19;5035514;28;20368;-71
2021/06/09 02:21:59;;;;;;;3.42;3.15;;;;;;;16.61;78.60;99214.84;5034452;28;20033;-70
2021/06/09 02:24:27;;;;;;;3.55;3.25;;;;;;;16.70;78.29;99200.50;5035435;28;20522;-70
2021/06/09 02:26:56;;;;;;;3.88;3.58;;;;;;;16.71;78.19;99204.00;5035208;28;20041;-72
2021/06/09 02:29:24;;;;;;;4.78;4.38;;;;;;;16.69;77.90;99211.34;5035411;28;20053;-75
2021/06/09 02:31:51;;;;;;;;;;;;;;;16.65;77.82;99203.66;5035751;28;20041;-74
2021/06/09 02:34:22;;;;;;;3.97;3.58;;;;;;;16.63;78.01;99203.00;5035143;28;19913;-71
2021/06/09 02:36:55;;;;;;;3.65;3.35;;;;;;;16.60;78.27;99208.69;5035069;28;20063;-69
2021/06/09 02:39:22;;;;;;;3.80;3.50;;;;;;;16.55;78.33;99207.50;5033980;28;20422;-73
2021/06/09 02:41:49;;;;;;;3.80;3.50;;;;;;;16.48;78.44;99212.69;5035340;28;20041;-78
2021/06/09 02:44:17;;;;;;;4.70;4.22;;;;;;;16.51;78.25;99220.38;5035323;28;20043;-72
2021/06/09 02:46:53;;;;;;;3.83;3.42;;;;;;;16.55;78.32;99221.72;5033643;28;20044;-73
2021/06/09 02:49:22;;;;;;;3.75;3.45;;;;;;;16.56;78.05;99217.19;5034063;28;20041;-71
2021/06/09 02:51:53;;;;;;;3.42;3.10;;;;;;;16.62;78.00;99225.38;5034024;28;20033;-70
2021/06/09 02:54:30;;;;;;;3.65;3.35;;;;;;;16.62;77.72;99228.06;5035489;28;20029;-69
2021/06/09 02:57:30;;;;;;;3.55;3.25;;;;;;;16.56;77.61;99219.88;5034334;28;20025;-72
2021/06/09 03:00:08;;;;;;;3.83;3.30;;;;;;;16.55;77.81;99229.72;5035680;28;20509;-72
2021/06/09 03:02:40;;;;;;;3.55;3.25;;;;;;;16.59;77.82;99239.06;5025060;28;20038;-73
2021/06/09 03:05:35;;;;;;;6.57;3.80;;;;;;;16.62;77.87;99237.88;5014839;28;20038;-71
2021/06/09 03:08:21;;;;;;;4.78;4.38;;;;;;;16.55;78.00;99240.41;5014245;28;20050;-74
2021/06/09 03:10:51;;;;;;;4.18;3.78;;;;;;;16.70;77.78;99235.22;5012097;28;20427;-75
2021/06/09 03:13:28;;;;;;;4.00;3.70;;;;;;;16.67;77.40;99238.22;5014831;28;20413;-73
2021/06/09 03:16:28;;;;;;;4.45;3.53;;;;;;;16.61;77.09;99239.72;5006381;28;20125;-73
2021/06/09 03:18:55;;;;;;;4.00;3.60;;;;;;;16.43;77.65;99247.91;4987110;28;20400;-74
2021/06/09 03:21:34;;;;;;;5.22;3.47;;;;;;;16.49;77.68;99244.56;4993803;28;20045;-71
2021/06/09 03:24:04;;;;;;;4.30;3.72;;;;;;;16.43;77.79;99244.41;4998398;28;20472;-74
2021/06/09 03:26:50;;;;;;;4.60;4.20;;;;;;;16.33;78.24;99245.38;4995940;28;20060;-71
2021/06/09 03:29:38;;;;;;;5.07;4.35;;;;;;;16.26;78.55;99240.88;5012195;28;20049;-73
2021/06/09 03:32:43;;;;;;;5.38;4.95;;;;;;;16.21;78.80;99240.56;5006424;28;20030;-72
2021/06/09 03:35:26;;;;;;;5.20;4.78;;;;;;;16.21;78.81;99245.91;5001518;28;20058;-75
2021/06/09 03:37:53;;;;;;;5.00;4.50;;;;;;;16.19;79.29;99240.72;5005485;28;20169;-73
2021/06/09 03:40:37;;;;;;;5.53;4.50;;;;;;;16.23;78.82;99243.91;5008530;28;20038;-72
2021/06/09 03:43:06;;;;;;;4.72;4.30;;;;;;;16.25;78.88;99232.06;5008375;28;20045;-72
2021/06/09 03:45:36;;;;;;;4.80;4.40;;;;;;;16.28;78.65;99237.06;5005742;28;20034;-71
2021/06/09 03:48:03;;;;;;;5.28;4.50;;;;;;;16.28;78.60;99236.22;5008991;28;20034;-72
2021/06/09 03:50:31;;;;;;;7.43;4.35;;;;;;;16.30;78.62;99248.41;4995289;28;20544;-70
2021/06/09 03:53:02;;;;;;;6.75;6.03;;;;;;;16.28;78.65;99245.06;5000868;28;20042;-72
2021/06/09 03:55:32;;;;;;;5.22;4.18;;;;;;;16.33;78.33;99245.38;5004087;28;20083;-74
2021/06/09 03:57:58;;;;;;;4.85;4.45;;;;;;;16.36;78.37;99248.75;4998865;28;20033;-71
2021/06/09 04:00:25;;;;;;;6.18;5.57;;;;;;;16.31;78.44;99252.75;5006867;28;20488;-76
2021/06/09 04:02:51;;;;;;;6.13;5.03;;;;;;;16.23;78.69;99246.56;4964078;28;20103;-71
2021/06/09 04:05:18;;;;;;;4.88;4.40;;;;;;;16.18;78.94;99247.88;5003490;28;20041;-78
2021/06/09 04:07:45;;;;;;;5.45;4.95;;;;;;;16.13;79.25;99244.06;5004308;28;20041;-72
2021/06/09 04:10:12;;;;;;;6.97;5.15;;;;;;;16.13;79.75;99244.06;4997264;28;20177;-71
2021/06/09 04:12:39;;;;;;;9.35;7.28;;;;;;;16.24;79.19;99253.59;4999588;28;20042;-75
2021/06/09 04:15:06;;;;;;;6.85;6.20;;;;;;;16.18;79.65;99242.53;5012639;28;20041;-71
2021/06/09 04:17:33;;;;;;;6.43;5.40;;;;;;;16.20;79.50;99239.72;4994308;28;20041;-71
2021/06/09 04:20:04;;;;;;;5.75;5.10;;;;;;;16.25;79.51;99237.41;4992431;28;20034;-72
2021/06/09 04:22:30;;;;;;;6.93;5.57;;;;;;;16.35;79.20;99239.91;4992231;28;20042;-74
2021/06/09 04:24:57;;;;;;;5.82;5.28;;;;;;;16.43;79.06;99241.75;4975348;28;20133;-76
2021/06/09 04:27:36;;;;;;;5.10;4.60;;;;;;;16.45;78.67;99231.75;4975627;28;20113;-74
2021/06/09 04:30:06;;;;;;;5.50;5.00;;;;;;;16.34;79.12;99235.56;4977114;28;20042;-71
2021/06/09 04:32:53;;;;;;;5.30;4.80;;;;;;;16.44;78.87;99246.91;4993482;28;20035;-70
2021/06/09 04:35:21;;;;;;;4.85;4.38;;;;;;;16.60;78.48;99245.25;4976009;28;20034;-73
2021/06/09 04:37:47;;;;;;;5.20;4.47;;;;;;;16.62;78.24;99245.88;4993115;28;20037;-71
2021/06/09 04:40:31;;;;;;;4.97;4.47;;;;;;;16.69;78.22;99249.56;4993175;28;20038;-74
2021/06/09 04:42:58;;;;;;;5.85;5.05;;;;;;;16.60;78.23;99245.25;4993434;28;20061;-73
2021/06/09 04:45:26;;;;;;;6.07;5.00;;;;;;;16.52;78.55;99254.06;4993405;28;20088;-72
2021/06/09 04:47:52;;;;;;;6.00;5.18;;;;;;;16.60;78.36;99254.06;4992920;28;20046;-72
2021/06/09 04:50:20;;;;;;;6.38;5.78;;;;;;;16.56;78.47;99254.56;4993264;28;20034;-72
2021/06/09 04:52:50;;;;;;;6.32;5.72;;;;;;;16.61;78.56;99257.56;4993001;28;20038;-76
2021/06/09 04:55:16;;;;;;;5.25;4.85;;;;;;;16.72;78.39;99248.38;4993329;28;20368;-71
2021/06/09 04:57:42;;;;;;;6.35;5.45;;;;;;;16.85;77.74;99248.72;4993089;28;20034;-69
2021/06/09 05:00:11;;;;;;;7.47;6.78;;;;;;;16.86;77.69;99254.88;4991891;28;20487;-74
2021/06/09 05:02:38;;;;;;;8.45;5.97;;;;;;;16.83;77.83;99256.06;5010840;28;20395;-72
2021/06/09 05:05:04;;;;;;;5.75;5.25;;;;;;;16.84;77.63;99252.38;5032242;28;20091;-73
2021/06/09 05:07:30;;;;;;;7.13;5.10;;;;;;;16.95;77.51;99252.06;5032494;28;20036;-72
2021/06/09 05:09:56;;;;;;;6.85;6.18;;;;;;;16.93;77.43;99251.38;5032266;28;20045;-72
2021/06/09 05:12:31;;;;;;;6.38;5.78;;;;;;;16.92;77.49;99252.41;5031076;28;20047;-72
2021/06/09 05:15:04;;;;;;;6.07;4.97;;;;;;;17.03;77.05;99251.19;5031148;28;20040;-76
2021/06/09 05:17:34;;;;;;;6.95;4.57;;;;;;;17.07;77.01;99259.72;5032413;28;20026;-74
2021/06/09 05:20:01;;;;;;;4.97;4.47;;;;;;;17.12;76.83;99254.69;5030887;28;20418;-73
2021/06/09 05:22:46;;;;;;;5.57;4.93;;;;;;;17.11;76.71;99253.84;5031367;28;20072;-74
2021/06/09 05:25:13;;;;;;;5.95;5.35;;;;;;;17.12;76.86;99254.69;5031007;28;20041;-72
2021/06/09 05:27:41;;;;;;;5.43;4.93;;;;;;;17.08;77.05;99258.72;5030841;28;20041;-74
2021/06/09 05:30:07;;;;;;;;;;;;;;;17.15;76.85;99254.34;5030757;28;20040;-76
2021/06/09 05:32:34;;;;;;;5.25;4.85;;;;;;;17.24;76.62;99249.81;5031939;28;20347;-72
2021/06/09 05:35:01;;;;;;;5.38;4.88;;;;;;;17.40;76.24;99246.25;5031904;28;20037;-74
2021/06/09 05:37:28;;;;;;;5.07;4.60;;;;;;;17.63;75.43;99246.28;5030836;28;20116;-72
2021/06/09 05:39:58;;;;;;;5.17;4.50;;;;;;;17.74;74.74;99245.91;5030583;28;20045;-72
2021/06/09 05:42:24;;;;;;;5.50;4.40;;;;;;;17.82;74.46;99245.03;5031139;28;20041;-70
2021/06/09 05:44:53;;;;;;;5.50;4.40;;;;;;;17.68;74.83;99256.47;5046533;28;20557;-72
2021/06/09 05:47:20;;;;;;;4.40;4.00;;;;;;;17.74;74.84;99253.09;5031719;28;20446;-72
2021/06/09 05:49:46;;;;;;;4.53;4.03;;;;;;;17.75;74.78;99258.28;5031816;28;20037;-73
2021/06/09 05:52:12;;;;;;;4.28;3.95;;;;;;;17.71;74.41;99258.81;5031797;28;20420;-73
2021/06/09 05:54:41;;;;;;;4.15;3.75;;;;;;;17.72;74.66;99265.81;5030942;28;20099;-74
2021/06/09 05:57:10;;;;;;;3.90;3.60;;;;;;;17.64;74.76;99253.31;5031551;28;20048;-72
2021/06/09 05:59:38;;;;;;;4.97;3.75;;;;;;;17.60;74.55;99258.19;5031856;28;20374;-72
2021/06/09 06:02:05;;;;;;;4.63;4.20;;;;;;;17.71;74.36;99261.50;5026385;28;20037;-74
2021/06/09 06:04:32;;;;;;;3.97;3.65;;;;;;;17.75;74.30;99258.28;5012055;28;20034;-77
2021/06/09 06:06:58;;;;;;;5.88;4.15;;;;;;;17.85;74.01;99266.09;5008706;28;20411;-73
2021/06/09 06:09:25;;;;;;;4.88;4.40;;;;;;;17.97;73.38;99268.38;4989980;28;20145;-74
2021/06/09 06:11:54;;;;;;;5.10;3.90;;;;;;;17.95;73.39;99260.53;4992748;28;20041;-74
2021/06/09 06:14:23;;;;;;;5.68;3.90;;;;;;;17.98;72.97;99256.69;5009414;28;20037;-72
2021/06/09 06:16:54;;;;;;;5.18;3.70;;;;;;;18.10;73.06;99263.28;5009508;28;20038;-77
2021/06/09 06:19:33;;;;;;;4.40;3.75;;;;;;;18.15;72.79;99255.56;5004725;28;20537;-73
2021/06/09 06:21:59;;;;;;;4.70;3.80;;;;;;;18.21;72.58;99265.56;5008976;28;20061;-72
2021/06/09 06:24:25;;;;;;;6.15;3.70;;;;;;;18.29;72.28;99261.16;4992749;28;20119;-73
2021/06/09 06:26:51;;;;;;;4.32;3.47;;;;;;;18.34;71.95;99264.94;5002423;28;20033;-74
2021/06/09 06:29:16;;;;;;;4.43;4.05;;;;;;;18.43;71.63;99268.41;5007935;28;20077;-74
2021/06/09 06:31:43;;;;;;;4.90;3.70;;;;;;;18.51;71.30;99260.31;5008032;28;20083;-74
2021/06/09 06:34:09;;;;;;;3.65;3.35;;;;;;;18.66;71.20;99268.38;4992728;28;20383;-76
2021/06/09 06:36:37;;;;;;;4.25;3.85;;;;;;;18.89;70.57;99264.81;5008441;28;20038;-78
2021/06/09 06:39:07;;;;;;;4.78;3.30;;;;;;;18.84;69.65;99270.75;5003069;28;20100;-74
2021/06/09 06:41:34;;;;;;;4.72;3.58;;;;;;;18.88;69.92;99271.22;4999373;28;20081;-72
2021/06/09 06:44:00;;;;;;;4.55;3.72;;;;;;;18.94;69.85;99272.34;4997170;28;20069;-75
2021/06/09 06:46:27;;;;;;;5.18;3.33;;;;;;;19.04;69.48;99275.59;5004355;28;20037;-75
2021/06/09 06:48:54;;;;;;;3.75;3.42;;;;;;;19.34;68.60;99275.59;5020407;28;20371;-74
2021/06/09 06:51:21;;;;;;;4.57;3.85;;;;;;;19.35;68.46;99279.94;5001024;28;20063;-74
2021/06/09 06:53:49;;;;;;;4.07;3.67;;;;;;;19.41;68.15;99279.22;4988426;28;20032;-74
2021/06/09 06:56:34;;;;;;;4.20;3.80;;;;;;;19.50;67.86;99280.78;5009382;28;20046;-73
2021/06/09 06:59:00;;;;;;;3.92;3.55;;;;;;;19.62;67.31;99277.63;5005513;28;20030;-74
2021/06/09 07:01:31;;;;;;;3.97;3.58;;;;;;;19.61;66.80;99287.50;5003920;28;20387;-72
2021/06/09 07:03:57;;;;;;;4.03;3.72;;;;;;;19.54;66.74;99278.56;5001563;28;20085;-76
2021/06/09 07:06:23;;;;;;;3.72;3.42;;;;;;;19.45;67.25;99288.56;5003556;28;20519;-74
2021/06/09 07:08:49;;;;;;;4.57;3.38;;;;;;;19.60;67.04;99279.66;5003519;28;20042;-73
2021/06/09 07:11:16;;;;;;;3.80;3.50;;;;;;;19.47;66.78;99289.19;5002298;28;20033;-76
2021/06/09 07:13:44;;;;;;;4.18;3.30;;;;;;;19.47;67.05;99299.09;5002749;28;20092;-72
2021/06/09 07:16:10;;;;;;;3.97;2.95;;;;;;;19.65;66.88;99294.19;5003733;28;20336;-75
2021/06/09 07:18:44;;;;;;;3.80;2.97;;;;;;;19.53;66.55;99299.19;5020486;28;20042;-77
2021/06/09 07:21:16;;;;;;;4.55;3.20;;;;;;;19.83;66.32;99298.34;5005798;28;20448;-75
2021/06/09 07:23:42;;;;;;;4.47;3.13;;;;;;;20.13;65.13;99292.91;5005925;28;20072;-72
2021/06/09 07:26:09;;;;;;;3.85;2.92;;;;;;;20.58;62.90;99290.03;5006202;28;20037;-76
2021/06/09 07:28:49;;;;;;;3.15;2.85;;;;;;;21.09;61.97;99287.16;5001266;28;20054;-74
2021/06/09 07:31:17;;;;;;;3.33;2.80;;;;;;;21.31;60.58;99287.91;5002630;28;20168;-74
2021/06/09 07:33:46;;;;;;;3.75;3.13;;;;;;;21.15;60.92;99280.97;5001707;28;20032;-78
2021/06/09 07:36:14;;;;;;;3.00;2.70;;;;;;;21.45;60.11;99278.03;5005287;28;20042;-72
2021/06/09 07:38:43;;;;;;;3.22;2.92;;;;;;;21.89;59.29;99280.53;5001364;28;20075;-73
2021/06/09 07:41:10;;;;;;;4.63;2.60;;;;;;;21.88;59.25;99281.56;5001489;28;20502;-75
2021/06/09 07:43:39;;;;;;;3.55;2.25;;;;;;;21.73;59.21;99290.66;5002107;28;20028;-72
2021/06/09 07:46:13;;;;;;;2.95;2.40;;;;;;;21.60;58.58;99288.72;4978232;28;20048;-76
2021/06/09 07:48:40;;;;;;;2.75;2.42;;;;;;;21.69;58.88;99296.63;5009829;28;20041;-74
2021/06/09 07:51:11;;;;;;;2.28;2.08;;;;;;;21.95;57.44;99295.91;4993610;28;20049;-79
2021/06/09 07:53:37;;;;;;;3.17;2.20;;;;;;;21.65;58.13;99299.69;5010014;28;20057;-74
2021/06/09 07:56:03;;;;;;;2.60;2.10;;;;;;;21.14;58.53;99297.31;5009201;28;20034;-75
2021/06/09 07:58:32;;;;;;;2.67;2.35;;;;;;;21.07;59.69;99302.66;4994638;28;20085;-73
2021/06/09 08:01:00;;;;;;;2.35;2.15;;;;;;;21.21;59.49;99300.91;5009322;28;20030;-75
2021/06/09 08:03:29;;;;;;;2.92;2.58;;;;;;;21.14;59.87;99305.41;5026195;28;20083;-73
2021/06/09 08:05:57;;;;;;;3.33;2.38;;;;;;;21.43;59.22;99301.66;5033629;28;20350;-75
2021/06/09 08:08:23;;;;;;;4.25;2.65;;;;;;;21.70;58.53;99300.97;5033451;28;20044;-75
2021/06/09 08:10:49;;;;;;;2.75;2.42;;;;;;;21.65;58.25;99298.88;5033916;28;20026;-74
2021/06/09 08:13:15;;;;;;;5.20;2.30;;;;;;;21.56;57.99;99300.06;5033660;28;20439;-74
2021/06/09 08:15:41;;;;;;;3.15;2.40;;;;;;;21.76;57.76;99301.00;5032513;28;20037;-72
2021/06/09 08:18:08;;;;;;;2.65;2.42;;;;;;;22.25;56.99;99298.25;5032567;28;20036;-76
2021/06/09 08:20:36;;;;;;;3.25;2.30;;;;;;;22.82;55.81;99298.75;5033583;28;20154;-73
2021/06/09 08:23:02;;;;;;;2.88;2.50;;;;;;;22.69;56.09;99290.66;5033308;28;20123;-73
2021/06/09 08:25:28;;;;;;;2.40;2.15;;;;;;;22.44;56.34;99291.25;5034077;28;20124;-73
2021/06/09 08:27:54;;;;;;;2.65;2.08;;;;;;;22.26;56.29;99299.91;5033097;28;20056;-74
2021/06/09 08:30:21;;;;;;;2.45;2.10;;;;;;;21.64;56.80;99300.72;5033608;28;20034;-77
2021/06/09 08:32:48;;;;;;;2.70;1.88;;;;;;;21.26;58.45;99300.28;5032994;28;20038;-76
2021/06/09 08:35:14;;;;;;;2.65;2.15;;;;;;;21.08;59.15;99298.09;5032984;28;20029;-74
2021/06/09 08:37:52;;;;;;;2.85;1.67;;;;;;;21.11;59.31;99298.56;5036232;28;20034;-90
2021/06/09 08:40:39;;;;;;;3.17;1.77;;;;;;;21.39;58.37;99303.06;5037412;28;20041;-83
2021/06/09 08:43:07;;;;;;;3.53;3.22;;;;;;;21.36;58.27;99306.16;4985989;28;20036;-81
2021/06/09 08:45:33;;;;;;;2.20;2.00;;;;;;;21.95;57.32;99298.59;4988638;28;20072;-82
2021/06/09 08:48:02;;;;;;;3.10;1.77;;;;;;;22.62;55.91;99298.75;4997523;28;20034;-85
2021/06/09 08:50:28;;;;;;;4.65;2.20;;;;;;;22.73;55.60;99306.22;4983746;28;20046;-83
2021/06/09 08:52:59;;;;;;;3.20;1.92;;;;;;;22.77;55.29;99301.25;5016927;28;20030;-82
2021/06/09 08:55:35;;;;;;;2.92;2.15;;;;;;;22.55;55.80;99304.13;4955435;28;20046;-79
2021/06/09 08:58:06;;;;;;;2.50;2.25;;;;;;;22.44;56.10;99305.59;5003700;28;20438;-84
2021/06/09 09:00:33;;;;;;;3.08;2.30;;;;;;;22.09;57.06;99300.31;4977088;28;20438;-74
2021/06/09 09:03:02;;;;;;;2.50;2.30;;;;;;;22.05;57.71;99299.03;5000577;28;20102;-73
2021/06/09 09:05:29;;;;;;;4.95;2.70;;;;;;;22.01;57.19;99302.31;4998383;28;20062;-70
2021/06/09 09:07:59;;;;;;;2.40;2.20;;;;;;;21.85;58.01;99298.97;5002831;28;20176;-78
2021/06/09 09:10:26;;;;;;;2.30;2.10;;;;;;;21.87;58.03;99304.97;5002575;28;20046;-76
2021/06/09 09:12:52;;;;;;;2.30;1.83;;;;;;;21.90;57.65;99296.50;4981931;28;20046;-73
2021/06/09 09:15:18;;;;;;;3.15;2.10;;;;;;;21.83;57.92;99300.19;5002957;28;20085;-73
2021/06/09 09:17:57;;;;;;;2.60;1.97;;;;;;;21.49;58.15;99303.53;4983476;28;20125;-71
2021/06/09 09:20:29;;;;;;;2.70;1.90;;;;;;;21.49;58.62;99302.69;5005523;28;20042;-77
2021/06/09 09:22:58;;;;;;;3.03;1.92;;;;;;;21.36;59.13;99300.78;5004615;28;20030;-72
2021/06/09 09:25:27;;;;;;;3.08;2.05;;;;;;;21.12;59.77;99299.38;5005087;28;20415;-72
2021/06/09 09:27:55;;;;;;;2.10;1.77;;;;;;;21.21;59.53;99303.59;5003024;28;20133;-74
2021/06/09 09:30:22;;;;;;;2.30;1.92;;;;;;;21.10;59.82;99291.50;5004601;28;20041;-73
2021/06/09 09:33:07;;;;;;;3.65;2.10;;;;;;;21.11;59.30;99303.94;5005146;28;20084;-76
2021/06/09 09:35:38;;;;;;;2.50;2.00;;;;;;;20.93;60.29;99287.47;5004980;28;20033;-73
2021/06/09 09:38:12;;;;;;;3.58;2.10;;;;;;;20.96;60.20;99295.13;5001272;28;20042;-71
2021/06/09 09:40:39;;;;;;;2.35;1.70;;;;;;;21.05;59.89;99283.19;5004206;28;20695;-73
2021/06/09 09:43:05;;;;;;;4.63;2.00;;;;;;;21.03;60.19;99289.81;5007340;28;20502;-73
2021/06/09 09:45:34;;;;;;;2.75;2.08;;;;;;;20.83;60.30;99280.53;4988168;28;20033;-74
2021/06/09 09:48:18;;;;;;;2.85;1.77;;;;;;;20.70;60.75;99291.19;5005601;28;20052;-75
2021/06/09 09:50:52;;;;;;;2.25;1.88;;;;;;;20.72;60.93;99282.94;5005645;28;20125;-72
2021/06/09 09:53:36;;;;;;;2.80;2.00;;;;;;;20.66;61.08;99282.66;5004108;28;20038;-70
2021/06/09 09:56:09;;;;;;;3.90;2.00;;;;;;;20.76;60.85;99279.69;5012502;28;20042;-77
2021/06/09 09:58:38;;;;;;;2.45;1.90;;;;;;;21.00;60.44;99277.59;5012279;28;20053;-72
2021/06/09 10:01:15;;;;;;;2.72;1.70;;;;;;;20.85;60.13;99273.13;5008839;28;20221;-72
2021/06/09 10:03:42;;;;;;;;;;;;;;;20.78;60.20;99277.63;5018633;28;20084;-76
2021/06/09 10:06:28;;;;;;;1.92;1.58;;;;;;;20.82;60.27;99272.69;5009167;28;19909;-74
2021/06/09 10:08:57;;;;;;;1.75;1.65;;;;;;;20.98;59.82;99272.38;4991132;28;20034;-77
2021/06/09 10:11:25;;;;;;;1.92;1.73;;;;;;;21.00;59.32;99282.97;4993524;28;20034;-73
2021/06/09 10:13:51;;;;;;;;;;;;;;;20.83;59.18;99277.84;4994040;28;20084;-72
2021/06/09 10:16:40;;;;;;;1.85;1.60;;;;;;;20.79;59.65;99273.09;4996931;28;19909;-76
2021/06/09 10:19:09;;;;;;;1.90;1.80;;;;;;;20.70;60.12;99285.81;4994995;28;20093;-76
2021/06/09 10:21:50;;;;;;;1.77;1.58;;;;;;;20.66;60.40;99279.13;4999556;28;20103;-70
2021/06/09 10:24:16;;;;;;;2.30;1.80;;;;;;;20.52;60.86;99279.03;5013024;28;20044;-75
2021/06/09 10:26:51;;;;;;;1.67;1.58;;;;;;;20.66;60.61;99271.06;5002019;28;20050;-73
2021/06/09 10:29:19;;;;;;;5.68;1.50;;;;;;;20.90;60.01;99269.00;4997220;28;20427;-75
2021/06/09 10:31:47;;;;;;;2.03;1.67;;;;;;;21.20;59.50;99274.16;5024587;28;20034;-72
2021/06/09 10:34:14;;;;;;;4.00;1.60;;;;;;;21.13;58.53;99268.75;5003112;28;20039;-72
2021/06/09 10:36:45;;;;;;;2.47;1.50;;;;;;;21.19;58.56;99267.16;4995907;28;20425;-78
2021/06/09 10:39:13;;;;;;;2.00;1.80;;;;;;;21.34;57.81;99259.78;5009860;28;20050;-78
2021/06/09 10:41:46;;;;;;;2.70;1.52;;;;;;;21.47;57.81;99269.78;5009072;28;20356;-77
2021/06/09 10:44:18;;;;;;;2.40;1.20;;;;;;;21.67;56.56;99258.31;4997071;28;20044;-74
2021/06/09 10:46:47;;;;;;;1.50;1.40;;;;;;;21.79;56.05;99262.94;4997235;28;20061;-78
2021/06/09 10:49:17;;;;;;;1.27;1.10;;;;;;;21.60;56.35;99274.44;4995632;28;20419;-78
2021/06/09 10:51:46;;;;;;;1.52;1.40;;;;;;;21.31;56.29;99269.09;5012939;28;20073;-77
2021/06/09 10:54:14;;;;;;;1.40;1.15;;;;;;;21.11;56.88;99263.59;5013478;28;20033;-74
2021/06/09 10:56:45;;;;;;;1.60;1.17;;;;;;;21.05;57.64;99267.06;5013316;28;20038;-74
2021/06/09 10:59:17;;;;;;;1.38;1.05;;;;;;;21.08;57.67;99266.66;4996535;28;20069;-75
2021/06/09 11:01:44;;;;;;;1.90;1.40;;;;;;;21.08;57.58;99263.97;5005354;28;20669;-74
2021/06/09 11:04:11;;;;;;;1.10;1.10;;;;;;;20.90;58.40;99263.63;5001615;28;20716;-72
2021/06/09 11:06:46;;;;;;;3.05;1.15;;;;;;;20.92;58.56;99264.28;5003155;28;20042;-74
2021/06/09 11:09:22;;;;;;;1.65;1.08;;;;;;;20.79;58.59;99268.53;5004667;28;20038;-74
2021/06/09 11:12:10;;;;;;;1.23;1.13;;;;;;;20.80;58.83;99275.56;5002171;28;20483;-77
2021/06/09 11:14:45;;;;;;;2.35;1.60;;;;;;;20.57;59.29;99273.06;5003591;28;20034;-76
2021/06/09 11:17:11;;;;;;;2.75;1.50;;;;;;;20.46;59.49;99274.44;4999423;28;20042;-73
2021/06/09 11:19:40;;;;;;;1.20;1.10;;;;;;;20.58;59.12;99277.41;5004145;28;20138;-72
2021/06/09 11:22:17;;;;;;;1.33;1.23;;;;;;;20.75;58.73;99272.66;5004055;28;20037;-74
2021/06/09 11:25:20;;;;;;;1.40;1.00;;;;;;;20.81;58.48;99268.31;5011489;28;20038;-72
2021/06/09 11:27:58;;;;;;;0.98;0.95;;;;;;;20.90;58.05;99267.19;5000619;28;20133;-72
2021/06/09 11:30:24;;;;;;;1.50;1.10;;;;;;;20.99;57.15;99257.91;4995400;28;20066;-73
2021/06/09 11:32:51;;;;;;;1.90;1.20;;;;;;;21.14;56.67;99255.13;4995404;28;20066;-72
2021/06/09 11:35:20;;;;;;;1.20;1.00;;;;;;;21.37;56.37;99259.41;5012790;28;20038;-74
2021/06/09 11:38:11;;;;;;;2.00;1.00;;;;;;;21.47;56.04;99250.94;4996508;28;20049;-74
2021/06/09 11:40:48;;;;;;;1.63;1.10;;;;;;;21.56;55.31;99254.31;5013422;28;20036;-72
2021/06/09 11:43:37;;;;;;;1.58;1.10;;;;;;;21.55;55.39;99261.53;5001776;28;20034;-72
2021/06/09 11:46:04;;;;;;;1.00;0.90;;;;;;;21.58;55.31;99257.66;4999701;28;20046;-72
2021/06/09 11:48:31;;;;;;;1.75;1.00;;;;;;;21.64;55.62;99254.16;4996509;28;20046;-73